createdAt,value
2023-03-29T00:00:14.497Z,5.32
2023-03-29T00:02:48.742Z,5.34
2023-03-29T00:05:22.995Z,5.36
2023-03-29T00:07:54.136Z,5.36
2023-03-29T00:10:24.174Z,5.35
2023-03-29T00:12:52.726Z,5.36
2023-03-29T00:15:21.993Z,5.37
2023-03-29T00:17:49.611Z,5.38
2023-03-29T00:20:17.686Z,5.38
2023-03-29T00:22:46.861Z,5.39
2023-03-29T00:25:14.761Z,5.39
2023-03-29T00:27:42.104Z,5.44
2023-03-29T00:30:12.725Z,5.48
2023-03-29T00:32:44.481Z,5.49
2023-03-29T00:35:12.269Z,5.50
2023-03-29T00:37:41.235Z,5.48
2023-03-29T00:40:12.432Z,5.49
2023-03-29T00:42:44.705Z,5.48
2023-03-29T00:45:27.127Z,5.49
2023-03-29T00:48:02.922Z,5.51
2023-03-29T00:50:43.685Z,5.50
2023-03-29T00:53:30.821Z,5.53
2023-03-29T00:56:14.250Z,5.52
2023-03-29T00:58:57.628Z,5.54
2023-03-29T01:01:55.086Z,5.56
2023-03-29T01:04:44.681Z,5.56
2023-03-29T01:07:18.148Z,5.57
2023-03-29T01:09:56.021Z,5.57
2023-03-29T01:12:36.486Z,5.56
2023-03-29T01:15:19.313Z,5.55
2023-03-29T01:17:50.937Z,5.56
2023-03-29T01:20:52.075Z,5.57
2023-03-29T01:23:34.456Z,5.58
2023-03-29T01:26:31.004Z,5.60
2023-03-29T01:29:14.474Z,5.55
2023-03-29T01:31:54.844Z,5.60
2023-03-29T01:34:56.641Z,5.60
2023-03-29T01:37:41.354Z,5.60
2023-03-29T01:40:12.406Z,5.58
2023-03-29T01:43:18.997Z,5.60
2023-03-29T01:46:08.414Z,5.63
2023-03-29T01:49:11.673Z,5.66
2023-03-29T01:51:49.877Z,5.67
2023-03-29T01:54:32.800Z,5.65
2023-03-29T01:57:05.075Z,5.67
2023-03-29T01:59:41.068Z,5.68
2023-03-29T02:02:17.253Z,5.67
2023-03-29T02:04:56.657Z,5.71
2023-03-29T02:07:31.445Z,5.73
2023-03-29T02:10:00.917Z,5.72
2023-03-29T02:12:29.952Z,5.74
2023-03-29T02:15:07.252Z,5.73
2023-03-29T02:17:35.267Z,5.74
2023-03-29T02:20:23.759Z,5.71
2023-03-29T02:23:11.204Z,5.67
2023-03-29T02:25:47.868Z,5.67
2023-03-29T02:28:34.135Z,5.69
2023-03-29T02:31:18.232Z,5.72
2023-03-29T02:34:40.596Z,5.76
2023-03-29T02:37:16.697Z,5.73
2023-03-29T02:40:04.973Z,5.80
2023-03-29T02:43:08.367Z,5.82
2023-03-29T02:45:45.228Z,5.84
2023-03-29T02:48:25.103Z,5.85
2023-03-29T02:51:01.233Z,5.86
2023-03-29T02:54:19.602Z,5.88
2023-03-29T02:56:58.732Z,5.88
2023-03-29T02:59:30.916Z,5.91
2023-03-29T03:02:05.654Z,5.92
2023-03-29T03:04:35.772Z,5.94
2023-03-29T03:07:05.552Z,5.94
2023-03-29T03:09:33.720Z,5.95
2023-03-29T03:12:02.749Z,5.95
2023-03-29T03:14:33.422Z,5.93
2023-03-29T03:17:04.357Z,5.96
2023-03-29T03:19:33.847Z,5.95
2023-03-29T03:22:01.588Z,5.96
2023-03-29T03:24:29.482Z,5.98
2023-03-29T03:26:58.175Z,6.00
2023-03-29T03:29:26.438Z,6.00
2023-03-29T03:32:12.554Z,6.01
2023-03-29T03:34:58.959Z,6.03
2023-03-29T03:37:28.625Z,6.02
2023-03-29T03:39:57.914Z,6.02
2023-03-29T03:42:29.896Z,6.06
2023-03-29T03:45:01.916Z,6.07
2023-03-29T03:47:52.001Z,6.09
2023-03-29T03:50:38.298Z,6.11
2023-03-29T03:53:16.401Z,6.12
2023-03-29T03:56:08.831Z,6.12
2023-03-29T03:59:01.748Z,6.13
2023-03-29T04:01:35.453Z,6.18
2023-03-29T04:04:15.605Z,6.18
2023-03-29T04:07:07.329Z,6.19
2023-03-29T04:09:35.666Z,6.19
2023-03-29T04:12:21.751Z,6.23
2023-03-29T04:15:11.581Z,6.25
2023-03-29T04:17:44.404Z,6.28
2023-03-29T04:20:49.793Z,6.30
2023-03-29T04:23:20.893Z,6.33
2023-03-29T04:26:01.462Z,6.31
2023-03-29T04:28:42.957Z,6.36
2023-03-29T04:31:16.977Z,6.39
2023-03-29T04:33:59.131Z,6.40
2023-03-29T04:36:39.984Z,6.43
2023-03-29T04:39:14.565Z,6.45
2023-03-29T04:41:54.610Z,6.46
2023-03-29T04:44:33.996Z,6.48
2023-03-29T04:47:07.041Z,6.48
2023-03-29T04:49:52.016Z,6.48
2023-03-29T04:52:33.401Z,6.46
2023-03-29T04:55:04.601Z,6.48
2023-03-29T04:57:47.274Z,6.49
2023-03-29T05:00:27.236Z,6.49
2023-03-29T05:02:57.912Z,6.50
2023-03-29T05:05:29.177Z,6.52
2023-03-29T05:07:59.440Z,6.53
2023-03-29T05:10:36.312Z,6.52
2023-03-29T05:13:04.264Z,6.55
2023-03-29T05:15:33.149Z,6.55
2023-03-29T05:18:01.212Z,6.54
2023-03-29T05:20:29.944Z,6.56
2023-03-29T05:23:11.736Z,6.56
2023-03-29T05:26:10.027Z,6.55
2023-03-29T05:28:40.697Z,6.59
2023-03-29T05:31:10.241Z,6.58
2023-03-29T05:33:49.369Z,6.60
2023-03-29T05:36:21.255Z,6.61
2023-03-29T05:38:55.756Z,6.62
2023-03-29T05:41:32.679Z,6.64
2023-03-29T05:44:31.675Z,6.64
2023-03-29T05:49:52.775Z,6.66
2023-03-29T05:52:23.858Z,6.67
2023-03-29T05:54:54.654Z,6.72
2023-03-29T05:57:23.123Z,6.75
2023-03-29T05:59:54.361Z,6.78
2023-03-29T06:02:42.979Z,6.81
2023-03-29T06:08:02.928Z,6.84
2023-03-29T06:10:50.350Z,6.86
2023-03-29T06:13:43.112Z,6.86
2023-03-29T06:16:13.920Z,6.90
2023-03-29T06:18:44.959Z,6.93
2023-03-29T06:21:28.669Z,6.97
2023-03-29T06:24:43.753Z,7.00
2023-03-29T06:27:21.465Z,7.05
2023-03-29T06:29:51.888Z,7.11
2023-03-29T06:32:19.969Z,7.14
2023-03-29T06:35:11.792Z,7.18
2023-03-29T06:37:49.528Z,7.22
2023-03-29T06:40:28.192Z,7.26
2023-03-29T06:46:01.067Z,7.32
2023-03-29T06:48:41.274Z,7.41
2023-03-29T06:51:08.761Z,7.44
2023-03-29T06:53:38.940Z,7.49
2023-03-29T06:56:09.781Z,7.52
2023-03-29T06:58:49.337Z,7.53
2023-03-29T07:01:31.612Z,7.61
2023-03-29T07:04:09.367Z,7.63
2023-03-29T07:07:03.592Z,7.68
2023-03-29T07:09:35.884Z,7.74
2023-03-29T07:12:26.448Z,7.78
2023-03-29T07:14:58.839Z,7.84
2023-03-29T07:17:42.106Z,7.90
2023-03-29T07:20:14.416Z,7.93
2023-03-29T07:22:47.433Z,8.01
2023-03-29T07:25:19.332Z,8.00
2023-03-29T07:27:47.569Z,8.05
2023-03-29T07:30:23.637Z,8.13
2023-03-29T07:32:53.750Z,8.13
2023-03-29T07:35:29.187Z,8.20
2023-03-29T07:37:57.294Z,8.25
2023-03-29T07:40:26.446Z,8.28
2023-03-29T07:42:57.850Z,8.33
2023-03-29T07:45:29.110Z,8.38
2023-03-29T07:48:15.460Z,8.42
2023-03-29T07:50:57.313Z,8.47
2023-03-29T07:53:30.456Z,8.52
2023-03-29T07:55:59.525Z,8.55
2023-03-29T07:58:43.264Z,8.59
2023-03-29T08:01:17.962Z,8.62
2023-03-29T08:04:09.805Z,8.66
2023-03-29T08:06:59.089Z,8.68
2023-03-29T08:09:38.714Z,8.73
2023-03-29T08:12:07.654Z,8.72
2023-03-29T08:14:38.563Z,8.74
2023-03-29T08:17:24.231Z,8.77
2023-03-29T08:19:52.816Z,8.75
2023-03-29T08:22:24.860Z,8.79
2023-03-29T08:25:08.151Z,8.82
2023-03-29T08:27:43.364Z,8.86
2023-03-29T08:30:22.117Z,8.89
2023-03-29T08:32:54.862Z,8.94
2023-03-29T08:35:23.400Z,8.95
2023-03-29T08:38:17.043Z,8.94
2023-03-29T08:40:48.800Z,8.90
2023-03-29T08:43:56.428Z,8.88
2023-03-29T08:47:21.138Z,8.84
2023-03-29T08:49:55.894Z,8.83
2023-03-29T08:52:39.126Z,8.83
2023-03-29T08:55:46.493Z,8.96
2023-03-29T08:58:37.863Z,9.08
2023-03-29T09:01:09.860Z,9.18
2023-03-29T09:04:16.398Z,9.28
2023-03-29T09:06:52.893Z,9.35
2023-03-29T09:09:43.171Z,9.44
2023-03-29T09:13:26.027Z,9.56
2023-03-29T09:16:20.120Z,9.71
2023-03-29T09:19:15.467Z,9.83
2023-03-29T09:22:02.999Z,9.93
2023-03-29T09:25:14.009Z,10.02
2023-03-29T09:28:13.577Z,10.11
2023-03-29T09:31:07.882Z,10.17
2023-03-29T09:34:14.589Z,10.22
2023-03-29T09:37:21.408Z,10.17
2023-03-29T09:39:53.173Z,10.19
2023-03-29T09:42:29.260Z,10.17
2023-03-29T09:45:08.571Z,10.15
2023-03-29T09:48:15.536Z,10.21
2023-03-29T09:50:51.789Z,10.21
2023-03-29T09:53:24.559Z,10.21
2023-03-29T09:56:03.004Z,10.25
2023-03-29T09:58:48.166Z,10.35
2023-03-29T10:01:28.595Z,10.37
2023-03-29T10:03:59.079Z,10.44
2023-03-29T10:06:26.993Z,10.42
2023-03-29T10:09:10.107Z,10.33
2023-03-29T10:12:02.121Z,10.26
2023-03-29T10:14:38.219Z,10.10
2023-03-29T10:17:22.402Z,10.00
2023-03-29T10:20:05.581Z,9.90
2023-03-29T10:22:38.044Z,9.78
2023-03-29T10:25:14.221Z,9.77
2023-03-29T10:27:46.273Z,9.74
2023-03-29T10:30:24.001Z,9.65
2023-03-29T10:33:00.053Z,9.67
2023-03-29T10:35:44.614Z,9.68
2023-03-29T10:38:18.727Z,9.75
2023-03-29T10:40:50.524Z,9.82
2023-03-29T10:43:43.353Z,9.91
2023-03-29T10:46:22.023Z,9.94
2023-03-29T10:48:59.848Z,9.94
2023-03-29T10:51:30.853Z,9.94
2023-03-29T10:53:59.615Z,9.99
2023-03-29T10:56:59.236Z,10.05
2023-03-29T11:00:10.882Z,10.11
2023-03-29T11:03:17.631Z,10.36
2023-03-29T11:06:03.308Z,10.66
2023-03-29T11:09:06.893Z,10.85
2023-03-29T11:12:24.166Z,11.01
2023-03-29T11:15:15.682Z,11.17
2023-03-29T11:18:20.724Z,11.34
2023-03-29T11:21:28.095Z,11.51
2023-03-29T11:24:51.468Z,11.73
2023-03-29T11:28:13.434Z,11.80
2023-03-29T11:31:08.608Z,11.81
2023-03-29T11:33:58.150Z,11.84
2023-03-29T11:37:03.615Z,11.87
2023-03-29T11:39:55.337Z,11.86
2023-03-29T11:42:34.106Z,11.91
2023-03-29T11:45:05.236Z,11.98
2023-03-29T11:47:40.940Z,11.97
2023-03-29T11:50:42.668Z,11.96
2023-03-29T11:53:22.863Z,11.91
2023-03-29T11:55:54.585Z,11.85
2023-03-29T11:58:41.143Z,11.82
2023-03-29T12:01:19.280Z,11.87
2023-03-29T12:04:39.033Z,12.05
2023-03-29T12:08:07.709Z,12.19
2023-03-29T12:10:53.144Z,12.31
2023-03-29T12:13:56.275Z,12.48
2023-03-29T12:16:48.396Z,12.58
2023-03-29T12:19:43.326Z,12.62
2023-03-29T12:22:11.466Z,12.57
2023-03-29T12:24:49.094Z,12.53
2023-03-29T12:27:35.268Z,12.54
2023-03-29T12:30:29.561Z,12.52
2023-03-29T12:33:52.444Z,12.48
2023-03-29T12:37:32.038Z,12.42
2023-03-29T12:40:43.344Z,12.38
2023-03-29T12:43:43.691Z,12.38
2023-03-29T12:46:35.473Z,12.43
2023-03-29T12:49:38.065Z,12.45
2023-03-29T12:52:37.124Z,12.57
2023-03-29T12:55:48.388Z,12.66
2023-03-29T12:58:59.950Z,12.87
2023-03-29T13:01:38.702Z,13.11
2023-03-29T13:04:20.636Z,13.33
2023-03-29T13:07:03.571Z,13.58
2023-03-29T13:09:54.524Z,13.75
2023-03-29T13:12:40.084Z,13.95
2023-03-29T13:15:14.714Z,14.20
2023-03-29T13:18:11.823Z,14.35
2023-03-29T13:21:10.426Z,14.54
2023-03-29T13:24:18.321Z,14.56
2023-03-29T13:27:18.020Z,14.48
2023-03-29T13:30:21.127Z,14.40
2023-03-29T13:33:44.473Z,14.42
2023-03-29T13:37:02.613Z,14.44
2023-03-29T13:39:36.982Z,14.44
2023-03-29T13:42:59.737Z,14.41
2023-03-29T13:45:33.526Z,14.42
2023-03-29T13:48:29.716Z,14.43
2023-03-29T13:51:09.452Z,14.41
2023-03-29T13:54:08.011Z,14.48
2023-03-29T13:57:10.733Z,14.50
2023-03-29T14:00:15.326Z,14.55
2023-03-29T14:03:07.555Z,14.55
2023-03-29T14:05:40.057Z,14.59
2023-03-29T14:08:42.224Z,14.60
2023-03-29T14:11:31.145Z,14.64
2023-03-29T14:14:05.259Z,14.67
2023-03-29T14:16:40.901Z,14.72
2023-03-29T14:19:32.069Z,14.74
2023-03-29T14:22:12.438Z,14.73
2023-03-29T14:24:51.939Z,14.73
2023-03-29T14:27:22.277Z,14.69
2023-03-29T14:29:52.380Z,14.67
2023-03-29T14:32:30.631Z,14.70
2023-03-29T14:34:58.759Z,14.70
2023-03-29T14:37:29.949Z,14.67
2023-03-29T14:39:59.691Z,14.68
2023-03-29T14:42:29.468Z,14.70
2023-03-29T14:45:06.978Z,14.71
2023-03-29T14:47:37.714Z,14.75
2023-03-29T14:50:07.216Z,14.79
2023-03-29T14:52:37.042Z,14.78
2023-03-29T14:55:07.256Z,14.78
2023-03-29T14:57:37.858Z,14.78
2023-03-29T15:00:39.760Z,14.79
2023-03-29T15:03:16.346Z,14.81
2023-03-29T15:06:08.893Z,14.77
2023-03-29T15:08:50.841Z,14.88
2023-03-29T15:11:29.670Z,15.04
2023-03-29T15:14:09.206Z,15.15
2023-03-29T15:16:46.173Z,15.21
2023-03-29T15:19:24.633Z,15.29
2023-03-29T15:21:52.830Z,15.32
2023-03-29T15:24:34.246Z,15.33
2023-03-29T15:27:14.671Z,15.40
2023-03-29T15:29:46.897Z,15.43
2023-03-29T15:32:33.625Z,15.42
2023-03-29T15:35:09.537Z,15.38
2023-03-29T15:37:38.138Z,15.39
2023-03-29T15:40:15.753Z,15.42
2023-03-29T15:42:43.650Z,15.46
2023-03-29T15:45:21.851Z,15.41
2023-03-29T15:47:50.207Z,15.37
2023-03-29T15:50:17.703Z,15.32
2023-03-29T15:52:45.054Z,15.27
2023-03-29T15:55:12.418Z,15.22
2023-03-29T15:57:42.557Z,15.18
2023-03-29T16:00:16.870Z,15.12
2023-03-29T16:02:44.414Z,15.11
2023-03-29T16:05:13.189Z,15.06
2023-03-29T16:07:40.526Z,15.00
2023-03-29T16:10:10.128Z,14.97
2023-03-29T16:12:39.196Z,14.93
2023-03-29T16:15:20.499Z,14.92
2023-03-29T16:17:48.010Z,14.90
2023-03-29T16:20:19.993Z,14.85
2023-03-29T16:22:48.875Z,14.83
2023-03-29T16:25:23.309Z,14.81
2023-03-29T16:27:57.271Z,14.78
2023-03-29T16:30:31.529Z,14.76
2023-03-29T16:32:58.960Z,14.75
2023-03-29T16:35:33.127Z,14.73
2023-03-29T16:38:00.549Z,14.74
2023-03-29T16:40:34.784Z,14.73
2023-03-29T16:43:03.253Z,14.76
2023-03-29T16:45:31.714Z,14.74
2023-03-29T16:47:59.489Z,14.73
2023-03-29T16:50:29.101Z,14.72
2023-03-29T16:52:57.193Z,14.73
2023-03-29T16:55:25.151Z,14.72
2023-03-29T16:57:53.177Z,14.70
2023-03-29T17:00:27.968Z,14.70
2023-03-29T17:03:13.408Z,14.68
2023-03-29T17:05:57.573Z,14.67
2023-03-29T17:08:45.188Z,14.65
2023-03-29T17:11:18.492Z,14.66
2023-03-29T17:13:46.075Z,14.64
2023-03-29T17:16:13.374Z,14.58
2023-03-29T17:18:40.959Z,14.61
2023-03-29T17:21:08.662Z,14.58
2023-03-29T17:23:37.556Z,14.53
2023-03-29T17:26:07.005Z,14.51
2023-03-29T17:28:35.162Z,14.51
2023-03-29T17:31:13.877Z,14.50
2023-03-29T17:33:41.526Z,14.45
2023-03-29T17:36:10.094Z,14.45
2023-03-29T17:38:40.410Z,14.42
2023-03-29T17:41:11.331Z,14.40
2023-03-29T17:43:55.240Z,14.37
2023-03-29T17:46:27.431Z,14.31
2023-03-29T17:49:00.363Z,14.29
2023-03-29T17:51:50.644Z,14.26
2023-03-29T17:54:23.421Z,14.23
2023-03-29T17:56:58.890Z,14.20
2023-03-29T17:59:27.630Z,14.17
2023-03-29T18:01:57.340Z,14.15
2023-03-29T18:04:24.894Z,14.12
2023-03-29T18:06:52.394Z,14.08
2023-03-29T18:09:19.824Z,14.06
2023-03-29T18:11:51.313Z,14.03
2023-03-29T18:14:18.801Z,14.01
2023-03-29T18:16:46.755Z,13.97
2023-03-29T18:19:15.296Z,13.94
2023-03-29T18:21:43.388Z,13.93
2023-03-29T18:24:12.132Z,13.92
2023-03-29T18:26:47.635Z,13.88
2023-03-29T18:29:16.366Z,13.84
2023-03-29T18:31:45.959Z,13.82
2023-03-29T18:34:15.620Z,13.79
2023-03-29T18:36:43.280Z,13.76
2023-03-29T18:39:10.977Z,13.73
2023-03-29T18:41:39.346Z,13.70
2023-03-29T18:44:08.029Z,13.68
2023-03-29T18:46:41.195Z,13.65
2023-03-29T18:49:13.170Z,13.63
2023-03-29T18:51:42.113Z,13.62
2023-03-29T18:54:10.167Z,13.60
2023-03-29T18:56:37.687Z,13.59
2023-03-29T18:59:06.938Z,13.56
2023-03-29T19:01:34.753Z,13.50
2023-03-29T19:04:02.703Z,13.50
2023-03-29T19:06:31.821Z,13.48
2023-03-29T19:09:05.148Z,13.46
2023-03-29T19:11:33.352Z,13.45
2023-03-29T19:14:01.819Z,13.43
2023-03-29T19:16:29.132Z,13.39
2023-03-29T19:18:59.288Z,13.40
2023-03-29T19:21:30.462Z,13.39
2023-03-29T19:24:00.653Z,13.37
2023-03-29T19:26:29.488Z,13.36
2023-03-29T19:28:59.352Z,13.33
2023-03-29T19:31:27.521Z,13.29
2023-03-29T19:33:56.184Z,13.28
2023-03-29T19:36:25.357Z,13.28
2023-03-29T19:38:54.081Z,13.26
2023-03-29T19:41:22.133Z,13.27
2023-03-29T19:43:49.413Z,13.27
2023-03-29T19:46:16.840Z,13.24
2023-03-29T19:48:53.338Z,13.26
2023-03-29T19:51:20.674Z,13.25
2023-03-29T19:53:48.024Z,13.24
2023-03-29T19:56:19.639Z,13.22
2023-03-29T19:58:48.123Z,13.20
2023-03-29T20:01:20.917Z,13.23
2023-03-29T20:03:50.738Z,13.21
2023-03-29T20:06:21.431Z,13.21
2023-03-29T20:08:49.521Z,13.20
2023-03-29T20:11:20.308Z,13.20
2023-03-29T20:13:49.478Z,13.20
2023-03-29T20:16:19.474Z,13.19
2023-03-29T20:18:47.429Z,13.20
2023-03-29T20:21:18.956Z,13.19
2023-03-29T20:23:53.441Z,13.19
2023-03-29T20:26:21.571Z,13.17
2023-03-29T20:28:49.779Z,13.15
2023-03-29T20:31:17.395Z,13.09
2023-03-29T20:33:44.708Z,13.11
2023-03-29T20:36:13.172Z,13.07
2023-03-29T20:38:42.010Z,13.05
2023-03-29T20:41:10.853Z,13.05
2023-03-29T20:43:38.554Z,13.01
2023-03-29T20:46:15.132Z,12.99
2023-03-29T20:48:53.547Z,12.95
2023-03-29T20:51:42.537Z,12.91
2023-03-29T20:54:10.550Z,12.88
2023-03-29T20:56:42.210Z,12.83
2023-03-29T20:59:12.614Z,12.82
2023-03-29T21:01:41.686Z,12.79
2023-03-29T21:04:10.776Z,12.77
2023-03-29T21:06:41.502Z,12.76
2023-03-29T21:09:09.093Z,12.73
2023-03-29T21:11:36.554Z,12.68
2023-03-29T21:14:04.590Z,12.68
2023-03-29T21:16:31.962Z,12.67
2023-03-29T21:18:59.318Z,12.70
2023-03-29T21:21:26.879Z,12.68
2023-03-29T21:23:54.116Z,12.67
2023-03-29T21:26:36.623Z,12.66
2023-03-29T21:29:04.607Z,12.68
2023-03-29T21:31:33.543Z,12.68
2023-03-29T21:34:01.738Z,12.69
2023-03-29T21:36:29.114Z,12.68
2023-03-29T21:38:56.546Z,12.71
2023-03-29T21:41:26.300Z,12.73
2023-03-29T21:43:53.622Z,12.74
2023-03-29T21:46:21.339Z,12.80
2023-03-29T21:48:48.679Z,12.79
2023-03-29T21:51:17.235Z,12.79
2023-03-29T21:53:44.466Z,12.79
2023-03-29T21:56:12.200Z,12.79
2023-03-29T21:58:39.645Z,12.80
2023-03-29T22:01:10.202Z,12.79
2023-03-29T22:03:38.758Z,12.80
2023-03-29T22:06:09.607Z,12.80
2023-03-29T22:08:40.418Z,12.78
2023-03-29T22:11:15.518Z,12.76
2023-03-29T22:13:44.811Z,12.76
2023-03-29T22:16:16.516Z,12.71
2023-03-29T22:18:52.589Z,12.72
2023-03-29T22:21:28.621Z,12.70
2023-03-29T22:23:59.763Z,12.70
2023-03-29T22:26:32.163Z,12.68
2023-03-29T22:29:01.475Z,12.67
2023-03-29T22:31:32.433Z,12.68
2023-03-29T22:34:00.725Z,12.66
2023-03-29T22:36:31.185Z,12.63
2023-03-29T22:38:59.737Z,12.66
2023-03-29T22:41:28.244Z,12.63
2023-03-29T22:44:00.934Z,12.63
2023-03-29T22:46:30.013Z,12.63
2023-03-29T22:48:57.460Z,12.64
2023-03-29T22:51:25.028Z,12.65
2023-03-29T22:53:53.187Z,12.65
2023-03-29T22:56:20.586Z,12.66
2023-03-29T22:58:48.061Z,12.66
2023-03-29T23:01:15.293Z,12.66
2023-03-29T23:03:42.601Z,12.67
2023-03-29T23:06:09.905Z,12.67
2023-03-29T23:08:37.236Z,12.66
2023-03-29T23:11:05.240Z,12.69
2023-03-29T23:13:39.737Z,12.69
2023-03-29T23:16:08.122Z,12.70
2023-03-29T23:18:37.521Z,12.70
2023-03-29T23:21:06.158Z,12.69
2023-03-29T23:23:34.129Z,12.70
2023-03-29T23:26:02.866Z,12.70
2023-03-29T23:28:31.399Z,12.72
2023-03-29T23:31:13.315Z,12.69
2023-03-29T23:33:42.852Z,12.67
2023-03-29T23:36:18.222Z,12.66
2023-03-29T23:38:46.986Z,12.64
2023-03-29T23:41:14.997Z,12.61
2023-03-29T23:43:47.042Z,12.60
2023-03-29T23:46:18.770Z,12.58
2023-03-29T23:48:50.801Z,12.55
2023-03-29T23:51:22.894Z,12.55
2023-03-29T23:53:51.441Z,12.50
2023-03-29T23:56:18.848Z,12.31
2023-03-29T23:58:46.166Z,12.13
